Time;durP1;ratioP1;P1;durP2;ratioP2;P2;SDS_P1;SDS_P2;PMS_P1;PMS_P2;Temp;Humidity;BMP_temperature;BMP_pressure;BME280_temperature;BME280_humidity;BME280_pressure;Samples;Min_cycle;Max_cycle;Signal;HPM_P1;HPM_P2
2020/12/27 00:02:08;;;;;;;7.93;7.15;;;6.60;99.90;;;;;;5052446;28;20481;-67
2020/12/27 00:04:34;;;;;;;7.40;6.68;;;6.60;99.90;;;;;;5043245;28;20131;-68
2020/12/27 00:07:03;;;;;;;8.30;7.53;;;6.50;99.90;;;;;;5050402;28;20088;-67
2020/12/27 00:09:29;;;;;;;8.07;7.33;;;6.50;99.90;;;;;;5047960;28;20046;-67
2020/12/27 00:11:54;;;;;;;8.50;6.80;;;6.50;99.90;;;;;;5045733;28;20032;-67
2020/12/27 00:14:20;;;;;;;9.60;7.78;;;6.50;99.90;;;;;;5060635;28;20041;-67
2020/12/27 00:16:45;;;;;;;8.55;7.82;;;6.50;99.90;;;;;;5062306;28;20064;-68
2020/12/27 00:19:11;;;;;;;8.25;7.45;;;6.50;99.90;;;;;;5057055;28;20037;-67
2020/12/27 00:21:37;;;;;;;10.32;7.38;;;6.50;99.90;;;;;;5061877;28;20098;-67
2020/12/27 00:24:02;;;;;;;7.97;7.15;;;6.50;99.90;;;;;;5056082;28;20485;-67
2020/12/27 00:26:28;;;;;;;7.88;7.13;;;6.40;99.90;;;;;;5065556;28;20410;-67
2020/12/27 00:28:53;;;;;;;8.65;7.80;;;6.40;99.90;;;;;;5048432;28;20029;-67
2020/12/27 00:31:19;;;;;;;9.77;7.40;;;6.40;99.90;;;;;;5065079;28;20103;-69
2020/12/27 00:33:45;;;;;;;8.82;7.85;;;6.30;99.90;;;;;;5046958;28;20029;-66
2020/12/27 00:36:16;;;;;;;6.95;5.45;;;6.30;99.90;;;;;;5052613;28;20037;-67
2020/12/27 00:38:42;;;;;;;8.35;7.55;;;6.30;99.90;;;;;;5053072;28;20028;-67
2020/12/27 00:41:07;;;;;;;9.68;8.05;;;6.30;99.90;;;;;;5050572;28;20036;-67
2020/12/27 00:43:33;;;;;;;12.57;7.80;;;6.20;99.90;;;;;;5040298;28;20120;-68
2020/12/27 00:45:58;;;;;;;9.40;8.07;;;6.30;99.90;;;;;;5046787;28;20060;-67
2020/12/27 00:48:24;;;;;;;8.00;7.15;;;6.20;99.90;;;;;;5051302;28;20056;-67
2020/12/27 00:50:49;;;;;;;9.15;8.15;;;6.30;99.90;;;;;;5058466;28;20419;-67
2020/12/27 00:53:15;;;;;;;8.18;7.35;;;6.20;99.90;;;;;;5079692;28;20033;-68
2020/12/27 00:55:43;;;;;;;10.75;7.28;;;6.20;99.90;;;;;;5062063;28;20041;-67
2020/12/27 00:58:09;;;;;;;9.20;8.10;;;6.20;99.90;;;;;;5057909;28;20075;-67
2020/12/27 01:00:34;;;;;;;11.55;7.88;;;6.20;99.90;;;;;;5062614;28;20507;-66
2020/12/27 01:03:00;;;;;;;10.20;8.20;;;6.20;99.90;;;;;;5066998;28;20369;-67
2020/12/27 01:05:25;;;;;;;11.38;8.25;;;6.20;99.90;;;;;;5068087;28;20135;-68
2020/12/27 01:07:51;;;;;;;9.63;8.63;;;6.20;99.90;;;;;;5067413;28;20032;-67
2020/12/27 01:10:16;;;;;;;10.48;8.23;;;6.10;99.90;;;;;;5062243;28;20123;-68
2020/12/27 01:12:44;;;;;;;11.23;7.90;;;6.20;99.90;;;;;;5075619;28;20023;-66
2020/12/27 01:15:11;;;;;;;12.60;8.93;;;6.10;99.90;;;;;;5065222;28;20471;-67
2020/12/27 01:17:37;;;;;;;10.15;8.93;;;6.20;99.90;;;;;;5067397;28;20036;-67
2020/12/27 01:20:03;;;;;;;10.68;8.20;;;6.20;99.90;;;;;;5071074;28;20029;-67
2020/12/27 01:22:32;;;;;;;9.52;7.93;;;6.20;99.90;;;;;;5068535;28;20104;-67
2020/12/27 01:24:58;;;;;;;8.30;7.50;;;6.20;99.90;;;;;;5081958;28;20024;-67
2020/12/27 01:27:24;;;;;;;12.02;8.88;;;6.30;99.90;;;;;;5068182;28;20085;-69
2020/12/27 01:29:49;;;;;;;13.70;7.85;;;6.20;99.90;;;;;;5073314;28;20044;-67
2020/12/27 01:32:15;;;;;;;11.75;7.95;;;6.20;99.90;;;;;;5066826;28;20030;-68
2020/12/27 01:34:40;;;;;;;9.55;7.70;;;6.20;99.90;;;;;;5061898;28;20035;-67
2020/12/27 01:37:06;;;;;;;13.25;8.85;;;6.20;99.90;;;;;;5072609;28;20021;-68
2020/12/27 01:39:31;;;;;;;9.10;7.82;;;6.20;99.90;;;;;;5080961;28;20465;-67
2020/12/27 01:41:57;;;;;;;9.85;8.50;;;6.10;99.90;;;;;;5077324;28;20025;-67
2020/12/27 01:44:22;;;;;;;12.38;8.18;;;6.10;99.90;;;;;;5066019;28;20025;-68
2020/12/27 01:46:48;;;;;;;12.38;8.38;;;6.10;99.90;;;;;;5077296;28;20016;-68
2020/12/27 01:49:14;;;;;;;10.57;6.70;;;6.10;99.90;;;;;;5074587;28;20396;-66
2020/12/27 01:51:40;;;;;;;12.10;7.50;;;6.10;99.90;;;;;;5062518;28;20063;-67
2020/12/27 01:54:06;;;;;;;10.65;8.10;;;6.00;99.90;;;;;;5056282;28;20037;-66
2020/12/27 01:56:38;;;;;;;8.27;6.93;;;6.00;99.90;;;;;;5062091;28;20170;-67
2020/12/27 01:59:08;;;;;;;9.77;6.57;;;6.00;99.90;;;;;;5057725;28;20040;-68
2020/12/27 02:01:36;;;;;;;9.60;7.03;;;6.00;99.90;;;;;;5071634;28;20181;-67
2020/12/27 02:04:01;;;;;;;9.00;6.80;;;5.90;99.90;;;;;;5084415;28;20036;-67
2020/12/27 02:06:27;;;;;;;12.23;7.88;;;5.90;99.90;;;;;;5064691;28;20102;-67
2020/12/27 02:08:53;;;;;;;8.85;6.72;;;5.90;99.90;;;;;;5067137;28;20028;-67
2020/12/27 02:11:22;;;;;;;12.32;6.72;;;5.90;99.90;;;;;;5058344;28;20119;-67
2020/12/27 02:13:52;;;;;;;8.65;7.43;;;5.90;99.90;;;;;;5069302;28;20133;-66
2020/12/27 02:16:20;;;;;;;8.98;5.70;;;5.90;99.90;;;;;;5066058;28;20032;-68
2020/12/27 02:18:46;;;;;;;7.93;6.80;;;5.90;99.90;;;;;;5056817;28;20133;-68
2020/12/27 02:21:12;;;;;;;9.38;6.82;;;6.00;99.90;;;;;;5065552;28;20120;-67
2020/12/27 02:23:38;;;;;;;7.75;6.40;;;5.90;99.90;;;;;;5066308;28;20263;-67
2020/12/27 02:26:05;;;;;;;7.53;6.28;;;5.90;99.90;;;;;;5068953;28;20036;-67
2020/12/27 02:28:31;;;;;;;8.00;6.25;;;5.90;99.90;;;;;;5065151;28;20035;-67
2020/12/27 02:30:56;;;;;;;7.47;6.50;;;5.90;99.90;;;;;;5065509;28;20050;-67
2020/12/27 02:33:22;;;;;;;7.95;6.70;;;6.00;99.90;;;;;;5055892;28;20033;-67
2020/12/27 02:35:48;;;;;;;10.00;5.97;;;5.90;99.90;;;;;;5062753;28;20040;-67
2020/12/27 02:38:13;;;;;;;7.15;5.95;;;5.90;99.90;;;;;;5057281;28;20029;-67
2020/12/27 02:40:41;;;;;;;8.20;5.93;;;6.00;99.90;;;;;;5062202;28;20111;-67
2020/12/27 02:43:07;;;;;;;5.75;5.07;;;5.90;99.90;;;;;;5051517;28;20025;-67
2020/12/27 02:45:32;;;;;;;8.77;4.85;;;5.90;99.90;;;;;;5064258;28;20081;-68
2020/12/27 02:47:58;;;;;;;5.90;5.30;;;5.90;99.90;;;;;;5063216;28;20480;-68
2020/12/27 02:50:23;;;;;;;9.98;5.18;;;6.00;99.90;;;;;;5061232;28;20491;-68
2020/12/27 02:52:49;;;;;;;5.35;4.85;;;5.90;99.90;;;;;;5059008;28;20016;-67
2020/12/27 02:55:14;;;;;;;9.60;4.88;;;5.90;99.90;;;;;;5062708;28;20059;-67
2020/12/27 02:57:40;;;;;;;7.65;4.78;;;5.90;99.90;;;;;;5063195;28;20063;-67
2020/12/27 03:00:06;;;;;;;6.65;4.75;;;6.00;99.90;;;;;;5060320;28;20485;-67
2020/12/27 03:02:31;;;;;;;7.50;4.93;;;6.00;99.90;;;;;;5055235;28;20033;-67
2020/12/27 03:04:57;;;;;;;5.25;4.75;;;6.00;99.90;;;;;;5065692;28;20077;-67
2020/12/27 03:07:22;;;;;;;4.68;3.88;;;5.90;99.90;;;;;;5063499;28;20409;-67
2020/12/27 03:09:48;;;;;;;5.65;4.13;;;6.00;99.90;;;;;;5070131;28;20024;-67
2020/12/27 03:12:13;;;;;;;5.72;4.57;;;6.00;99.90;;;;;;5085041;28;20106;-67
2020/12/27 03:14:39;;;;;;;10.48;4.75;;;6.00;99.90;;;;;;5077157;28;20484;-68
2020/12/27 03:17:05;;;;;;;6.80;4.53;;;5.90;99.90;;;;;;5076500;28;20024;-67
2020/12/27 03:19:30;;;;;;;5.55;4.45;;;5.90;99.90;;;;;;5063930;28;20074;-67
2020/12/27 03:21:56;;;;;;;4.10;3.58;;;5.90;99.90;;;;;;5077135;28;20114;-67
2020/12/27 03:24:21;;;;;;;8.57;4.50;;;5.90;99.90;;;;;;5070909;28;20124;-67
2020/12/27 03:26:47;;;;;;;4.43;4.00;;;5.90;99.90;;;;;;5075823;28;20024;-67
2020/12/27 03:29:12;;;;;;;7.80;4.13;;;5.90;99.90;;;;;;5070613;28;20047;-67
2020/12/27 03:31:38;;;;;;;5.35;2.97;;;5.90;99.90;;;;;;5078950;28;20025;-66
2020/12/27 03:34:03;;;;;;;8.52;3.13;;;5.90;99.90;;;;;;5059440;28;20393;-68
2020/12/27 03:36:29;;;;;;;5.28;3.67;;;6.00;99.90;;;;;;5064968;28;20033;-66
2020/12/27 03:38:54;;;;;;;5.82;3.25;;;5.90;99.90;;;;;;5074275;28;20489;-67
2020/12/27 03:41:20;;;;;;;4.32;3.60;;;5.90;99.90;;;;;;5073205;28;20472;-67
2020/12/27 03:43:46;;;;;;;4.45;3.78;;;5.90;99.90;;;;;;5066640;28;20032;-67
2020/12/27 03:46:12;;;;;;;5.38;3.67;;;6.00;99.90;;;;;;5070712;28;20639;-67
2020/12/27 03:48:38;;;;;;;7.28;3.90;;;5.90;99.90;;;;;;5065748;28;20070;-67
2020/12/27 03:51:03;;;;;;;8.68;3.33;;;5.90;99.90;;;;;;5067585;28;20407;-66
2020/12/27 03:53:29;;;;;;;7.00;3.92;;;5.90;99.90;;;;;;5075588;28;20035;-67
2020/12/27 03:55:55;;;;;;;4.50;3.45;;;5.90;99.90;;;;;;5073412;28;20074;-67
2020/12/27 03:58:20;;;;;;;6.13;3.88;;;6.00;99.90;;;;;;5069753;28;20116;-68
2020/12/27 04:00:46;;;;;;;5.15;3.38;;;5.90;99.90;;;;;;5066022;28;20028;-67
2020/12/27 04:03:11;;;;;;;3.85;3.45;;;5.90;99.90;;;;;;5064217;28;20100;-67
2020/12/27 04:05:37;;;;;;;4.25;3.47;;;5.90;99.90;;;;;;5071912;28;20389;-67
2020/12/27 04:08:02;;;;;;;3.90;3.33;;;6.00;99.90;;;;;;5081710;28;20019;-68
2020/12/27 04:10:28;;;;;;;3.42;2.95;;;6.00;99.90;;;;;;5086762;28;20073;-67
2020/12/27 04:12:53;;;;;;;5.78;3.28;;;6.00;99.90;;;;;;5077443;28;20116;-68
2020/12/27 04:15:19;;;;;;;5.00;2.80;;;6.00;99.90;;;;;;5061525;28;20052;-68
2020/12/27 04:17:45;;;;;;;3.92;3.10;;;6.00;99.90;;;;;;5069069;28;20024;-68
2020/12/27 04:20:10;;;;;;;3.20;2.90;;;6.00;99.90;;;;;;5079991;28;20477;-67
2020/12/27 04:22:36;;;;;;;3.97;3.53;;;6.00;99.90;;;;;;5079439;28;20025;-67
2020/12/27 04:25:01;;;;;;;3.33;2.88;;;6.00;99.90;;;;;;5065690;28;20071;-68
2020/12/27 04:27:27;;;;;;;3.67;2.92;;;6.00;99.90;;;;;;5065789;28;20025;-67
2020/12/27 04:29:52;;;;;;;2.67;2.40;;;6.00;99.90;;;;;;5090907;28;20035;-67
2020/12/27 04:32:18;;;;;;;2.58;2.15;;;6.00;99.90;;;;;;5061858;28;20020;-68
2020/12/27 04:34:43;;;;;;;2.95;2.53;;;6.00;99.90;;;;;;5065193;28;20197;-68
2020/12/27 04:37:09;;;;;;;2.47;2.13;;;6.00;99.90;;;;;;5090422;28;20505;-68
2020/12/27 04:39:34;;;;;;;4.80;2.45;;;6.00;99.90;;;;;;5066131;28;20094;-67
2020/12/27 04:42:01;;;;;;;2.60;2.10;;;6.00;99.90;;;;;;5069911;28;20106;-66
2020/12/27 04:44:27;;;;;;;4.20;2.10;;;6.10;99.90;;;;;;5065163;28;20028;-67
2020/12/27 04:46:53;;;;;;;2.20;2.00;;;6.10;99.90;;;;;;5059859;28;20029;-66
2020/12/27 04:49:19;;;;;;;2.42;2.22;;;6.10;99.90;;;;;;5075579;28;20050;-67
2020/12/27 04:51:47;;;;;;;2.42;2.03;;;6.10;99.90;;;;;;5072615;28;20049;-67
2020/12/27 04:54:13;;;;;;;2.35;1.67;;;6.10;99.90;;;;;;5064493;28;20115;-69
2020/12/27 04:56:41;;;;;;;2.85;1.95;;;6.10;99.90;;;;;;5084130;28;20102;-67
2020/12/27 04:59:07;;;;;;;3.05;1.80;;;6.10;99.90;;;;;;5068031;28;20021;-66
2020/12/27 05:01:32;;;;;;;2.35;2.10;;;6.00;99.90;;;;;;5072213;28;20198;-67
2020/12/27 05:03:58;;;;;;;2.15;1.70;;;6.10;99.90;;;;;;5063511;28;20455;-67
2020/12/27 05:06:23;;;;;;;2.63;1.55;;;6.10;99.90;;;;;;5070406;28;20032;-67
2020/12/27 05:08:49;;;;;;;1.38;1.25;;;6.10;99.90;;;;;;5058511;28;20774;-68
2020/12/27 05:11:18;;;;;;;1.83;1.60;;;6.10;99.90;;;;;;5063444;28;20021;-68
2020/12/27 05:13:48;;;;;;;2.72;1.45;;;6.10;99.90;;;;;;5054881;28;20034;-67
2020/12/27 05:16:17;;;;;;;1.23;1.13;;;6.20;99.90;;;;;;5068387;28;20043;-67
2020/12/27 05:18:49;;;;;;;2.88;1.25;;;6.10;99.90;;;;;;5068870;28;20037;-67
2020/12/27 05:21:18;;;;;;;3.33;1.35;;;6.10;99.90;;;;;;5077147;28;20016;-67
2020/12/27 05:23:44;;;;;;;2.58;1.10;;;6.20;99.90;;;;;;5065057;28;20036;-67
2020/12/27 05:26:10;;;;;;;2.72;1.10;;;6.10;99.90;;;;;;5078992;28;20027;-67
2020/12/27 05:28:36;;;;;;;1.38;1.30;;;6.10;99.90;;;;;;5072733;28;20029;-67
2020/12/27 05:31:14;;;;;;;1.60;1.08;;;6.10;99.90;;;;;;5082888;28;20480;-67
2020/12/27 05:33:41;;;;;;;2.72;1.00;;;6.20;99.90;;;;;;5063863;28;20029;-67
2020/12/27 05:36:07;;;;;;;3.90;0.98;;;6.10;99.90;;;;;;5063685;28;20547;-67
2020/12/27 05:38:33;;;;;;;2.83;0.80;;;6.10;99.90;;;;;;5062554;28;20036;-67
2020/12/27 05:41:01;;;;;;;3.78;0.90;;;6.10;99.90;;;;;;5052795;28;20028;-67
2020/12/27 05:43:27;;;;;;;0.95;0.88;;;6.10;99.90;;;;;;5058457;28;20167;-67
2020/12/27 05:45:55;;;;;;;1.27;1.17;;;6.10;99.90;;;;;;5061062;28;20127;-68
2020/12/27 05:48:21;;;;;;;0.95;0.60;;;6.20;99.90;;;;;;5061398;28;20108;-67
2020/12/27 05:50:52;;;;;;;1.58;0.80;;;6.10;99.90;;;;;;5076890;28;20158;-67
2020/12/27 05:53:22;;;;;;;1.27;0.60;;;6.20;99.90;;;;;;5063605;28;20033;-67
2020/12/27 05:55:52;;;;;;;1.02;0.68;;;6.10;99.90;;;;;;5065790;28;20551;-67
2020/12/27 05:58:21;;;;;;;0.73;0.50;;;6.10;99.90;;;;;;5070637;28;20923;-67
2020/12/27 06:00:52;;;;;;;0.60;0.60;;;6.20;99.90;;;;;;5077793;28;20115;-67
2020/12/27 06:03:21;;;;;;;0.60;0.60;;;6.20;99.90;;;;;;5071392;28;20028;-68
2020/12/27 06:05:56;;;;;;;0.80;0.80;;;6.20;99.90;;;;;;5060192;28;20056;-67
2020/12/27 06:08:27;;;;;;;0.60;0.60;;;6.20;99.90;;;;;;5052354;28;20131;-67
2020/12/27 06:10:56;;;;;;;0.50;0.50;;;6.20;99.90;;;;;;5068413;28;20071;-67
2020/12/27 06:13:28;;;;;;;0.85;0.75;;;6.20;99.90;;;;;;5078116;28;20021;-67
2020/12/27 06:15:57;;;;;;;0.70;0.60;;;6.20;99.90;;;;;;5087442;28;20108;-67
2020/12/27 06:18:26;;;;;;;0.30;0.30;;;6.30;99.90;;;;;;5080653;28;20035;-67
2020/12/27 06:21:09;;;;;;;0.68;0.50;;;6.30;99.90;;;;;;5081984;28;20110;-68
2020/12/27 06:23:38;;;;;;;0.55;0.50;;;6.30;99.90;;;;;;5084476;28;20165;-68
2020/12/27 06:26:06;;;;;;;0.40;0.40;;;6.30;99.90;;;;;;5077847;28;20039;-67
2020/12/27 06:28:33;;;;;;;0.50;0.50;;;6.20;99.90;;;;;;5076425;28;20050;-67
2020/12/27 06:31:05;;;;;;;1.38;0.60;;;6.20;99.90;;;;;;5082074;28;20032;-68
2020/12/27 06:33:41;;;;;;;0.60;0.45;;;6.30;99.90;;;;;;5077269;28;20108;-67
2020/12/27 06:36:07;;;;;;;0.40;0.40;;;6.30;99.90;;;;;;5082702;28;20046;-68
2020/12/27 06:38:33;;;;;;;0.75;0.40;;;6.30;99.90;;;;;;5083504;28;20304;-67
2020/12/27 06:41:09;;;;;;;1.30;0.60;;;6.30;99.90;;;;;;5078888;28;20016;-68
2020/12/27 06:43:42;;;;;;;0.70;0.43;;;6.30;99.90;;;;;;5073614;28;20055;-67
2020/12/27 06:46:27;;;;;;;0.57;0.50;;;6.30;99.90;;;;;;5076063;28;20020;-67
2020/12/27 06:49:12;;;;;;;1.60;0.40;;;6.30;99.90;;;;;;5078569;28;20025;-68
2020/12/27 06:51:42;;;;;;;0.30;0.30;;;6.30;99.90;;;;;;5073256;28;20048;-68
2020/12/27 06:54:09;;;;;;;2.88;0.40;;;6.30;99.90;;;;;;5076033;28;20073;-67
2020/12/27 06:56:42;;;;;;;0.40;0.20;;;6.30;99.90;;;;;;5057841;28;20115;-69
2020/12/27 06:59:08;;;;;;;0.28;0.28;;;6.30;99.90;;;;;;5056540;28;20111;-67
2020/12/27 07:01:35;;;;;;;0.43;0.43;;;6.30;99.90;;;;;;5061735;28;20116;-67
2020/12/27 07:04:18;;;;;;;0.43;0.30;;;6.30;99.90;;;;;;5057630;28;20104;-67
2020/12/27 07:06:46;;;;;;;0.73;0.20;;;6.30;99.90;;;;;;5077374;28;20393;-67
2020/12/27 07:09:21;;;;;;;1.65;0.40;;;6.30;99.90;;;;;;5064680;28;20384;-67
2020/12/27 07:12:01;;;;;;;0.30;0.30;;;6.30;99.90;;;;;;5071198;28;20495;-66
2020/12/27 07:14:27;;;;;;;0.50;0.50;;;6.20;99.90;;;;;;5055269;28;20060;-68
2020/12/27 07:16:56;;;;;;;0.77;0.52;;;6.20;99.90;;;;;;5066038;28;20028;-68
2020/12/27 07:19:25;;;;;;;0.20;0.20;;;6.20;99.90;;;;;;5067643;28;20082;-67
2020/12/27 07:21:51;;;;;;;2.40;0.30;;;6.20;99.90;;;;;;5056884;28;20025;-67
2020/12/27 07:24:27;;;;;;;0.50;0.32;;;6.20;99.90;;;;;;5071603;28;20052;-67
2020/12/27 07:26:52;;;;;;;0.73;0.40;;;6.30;99.90;;;;;;5075136;28;20033;-68
2020/12/27 07:29:23;;;;;;;0.30;0.30;;;6.30;99.90;;;;;;5076625;28;20040;-67
2020/12/27 07:31:52;;;;;;;0.60;0.40;;;6.30;99.90;;;;;;5064307;28;20037;-68
2020/12/27 07:34:22;;;;;;;0.43;0.30;;;6.20;99.90;;;;;;5064126;28;20131;-68
2020/12/27 07:36:58;;;;;;;0.20;0.20;;;6.20;99.90;;;;;;5069071;28;20039;-68
2020/12/27 07:39:56;;;;;;;0.20;0.20;;;6.20;99.90;;;;;;5062971;28;20074;-67
2020/12/27 07:42:40;;;;;;;0.20;0.20;;;6.20;99.90;;;;;;5056331;28;20357;-68
2020/12/27 07:45:10;;;;;;;0.20;0.20;;;6.20;99.90;;;;;;5059502;28;20032;-68
2020/12/27 07:47:39;;;;;;;0.47;0.40;;;6.30;99.90;;;;;;5055727;28;20056;-67
2020/12/27 07:50:16;;;;;;;0.20;0.20;;;6.20;99.90;;;;;;5063081;28;20043;-68
2020/12/27 07:52:43;;;;;;;0.38;0.30;;;6.20;99.90;;;;;;5062673;28;20449;-68
2020/12/27 07:55:09;;;;;;;0.22;0.22;;;6.30;99.90;;;;;;5060750;28;20098;-68
2020/12/27 07:57:35;;;;;;;0.73;0.30;;;6.20;99.90;;;;;;5061956;28;20077;-68
2020/12/27 08:00:06;;;;;;;0.35;0.30;;;6.20;99.90;;;;;;5061203;28;20422;-68
2020/12/27 08:02:32;;;;;;;0.50;0.30;;;6.30;99.90;;;;;;5059052;28;20090;-68
2020/12/27 08:05:01;;;;;;;0.40;0.30;;;6.30;99.90;;;;;;5061553;28;20113;-68
2020/12/27 08:07:27;;;;;;;0.28;0.28;;;6.20;99.90;;;;;;5065204;28;20552;-68
2020/12/27 08:09:53;;;;;;;0.85;0.40;;;6.20;99.90;;;;;;5067242;28;20127;-67
2020/12/27 08:12:19;;;;;;;0.30;0.30;;;6.30;99.90;;;;;;5081493;28;20408;-67
2020/12/27 08:14:44;;;;;;;0.20;0.20;;;6.30;99.90;;;;;;5074317;28;20121;-67
2020/12/27 08:17:19;;;;;;;1.42;0.47;;;6.30;99.90;;;;;;5083693;28;20047;-66
2020/12/27 08:19:44;;;;;;;0.88;0.45;;;6.30;99.90;;;;;;5084044;28;20090;-66
2020/12/27 08:22:10;;;;;;;0.68;0.50;;;6.30;99.90;;;;;;5087707;28;20039;-66
2020/12/27 08:24:35;;;;;;;0.52;0.38;;;6.30;99.90;;;;;;5084028;28;20089;-66
2020/12/27 08:27:01;;;;;;;0.40;0.40;;;6.40;99.90;;;;;;5077156;28;20041;-67
2020/12/27 08:29:27;;;;;;;0.40;0.38;;;6.30;99.90;;;;;;5063166;28;20445;-66
2020/12/27 08:32:04;;;;;;;0.55;0.32;;;6.40;99.90;;;;;;5065070;28;20021;-67
2020/12/27 08:34:30;;;;;;;0.20;0.20;;;6.40;99.90;;;;;;5058732;28;20045;-67
2020/12/27 08:37:00;;;;;;;1.25;0.40;;;6.40;99.90;;;;;;5068990;28;20062;-67
2020/12/27 08:40:03;;;;;;;0.68;0.20;;;6.40;99.90;;;;;;5070947;28;20032;-67
2020/12/27 08:42:48;;;;;;;0.20;0.20;;;6.40;99.90;;;;;;5027570;28;20425;-67
2020/12/27 08:45:19;;;;;;;1.73;0.60;;;6.40;99.90;;;;;;5064203;28;20140;-67
2020/12/27 08:48:04;;;;;;;0.82;0.38;;;6.40;99.90;;;;;;5070009;28;20053;-66
2020/12/27 08:50:36;;;;;;;0.40;0.35;;;6.50;99.90;;;;;;5055406;28;20146;-66
2020/12/27 08:53:02;;;;;;;2.05;0.50;;;6.40;99.90;;;;;;5062915;28;20036;-66
2020/12/27 08:55:30;;;;;;;0.75;0.22;;;6.50;99.90;;;;;;5061874;28;20481;-64
2020/12/27 08:58:02;;;;;;;0.82;0.45;;;6.40;99.90;;;;;;5084720;28;20476;-67
2020/12/27 09:00:33;;;;;;;0.30;0.30;;;6.50;99.90;;;;;;5070003;28;20111;-66
2020/12/27 09:03:03;;;;;;;0.70;0.30;;;6.40;99.90;;;;;;5079277;28;20084;-66
2020/12/27 09:05:35;;;;;;;0.20;0.20;;;6.40;99.90;;;;;;5062046;28;20746;-65
2020/12/27 09:08:12;;;;;;;0.40;0.40;;;6.40;99.90;;;;;;5057367;28;20041;-66
2020/12/27 09:10:39;;;;;;;1.08;0.45;;;6.40;99.90;;;;;;5062066;28;20469;-67
2020/12/27 09:13:10;;;;;;;0.50;0.38;;;6.40;99.90;;;;;;5059666;28;20028;-68
2020/12/27 09:15:48;;;;;;;0.32;0.30;;;6.40;99.90;;;;;;5069909;28;20037;-66
2020/12/27 09:18:27;;;;;;;0.30;0.30;;;6.40;99.90;;;;;;5059962;28;20029;-66
2020/12/27 09:21:14;;;;;;;0.32;0.30;;;6.40;99.90;;;;;;5079505;28;20029;-67
2020/12/27 09:23:40;;;;;;;0.30;0.30;;;6.40;99.90;;;;;;5072613;28;20048;-66
2020/12/27 09:26:15;;;;;;;1.60;0.30;;;6.40;99.90;;;;;;5069597;28;20043;-66
2020/12/27 09:28:42;;;;;;;0.88;0.52;;;6.40;99.90;;;;;;5072516;28;20017;-67
2020/12/27 09:31:14;;;;;;;0.20;0.20;;;6.50;99.90;;;;;;5082616;28;20016;-66
2020/12/27 09:33:47;;;;;;;1.10;0.32;;;6.50;99.90;;;;;;5084638;28;20024;-66
2020/12/27 09:36:13;;;;;;;0.30;0.30;;;6.60;99.90;;;;;;5089526;28;20056;-66
2020/12/27 09:38:43;;;;;;;0.38;0.38;;;6.60;99.90;;;;;;5087545;28;20020;-66
2020/12/27 09:41:17;;;;;;;0.40;0.40;;;6.60;99.90;;;;;;5072008;28;20043;-67
2020/12/27 09:43:47;;;;;;;0.30;0.30;;;6.60;99.90;;;;;;5072347;28;20028;-66
2020/12/27 09:46:32;;;;;;;0.57;0.35;;;6.60;99.90;;;;;;5080878;28;20056;-65
2020/12/27 09:48:58;;;;;;;0.68;0.60;;;6.70;99.90;;;;;;5086083;28;20480;-67
2020/12/27 09:51:23;;;;;;;0.30;0.30;;;6.70;99.90;;;;;;5091112;28;20044;-67
2020/12/27 09:53:55;;;;;;;3.47;0.38;;;6.70;99.90;;;;;;5087446;28;20031;-66
2020/12/27 09:56:20;;;;;;;0.28;0.20;;;6.70;99.90;;;;;;5091013;28;20865;-66
2020/12/27 09:58:46;;;;;;;0.50;0.50;;;6.80;99.90;;;;;;5090706;28;20027;-67
2020/12/27 10:01:11;;;;;;;0.25;0.20;;;6.70;99.90;;;;;;5089694;28;20028;-67
2020/12/27 10:03:37;;;;;;;0.50;0.30;;;6.80;99.90;;;;;;5084870;28;20031;-67
2020/12/27 10:06:02;;;;;;;0.38;0.32;;;6.80;99.90;;;;;;5086632;28;20024;-66
2020/12/27 10:08:28;;;;;;;0.30;0.20;;;6.80;99.90;;;;;;5081609;28;20024;-68
2020/12/27 10:10:54;;;;;;;1.85;0.40;;;6.90;99.90;;;;;;5088090;28;20420;-66
2020/12/27 10:13:19;;;;;;;0.40;0.38;;;6.80;99.90;;;;;;5088058;28;20035;-66
2020/12/27 10:15:45;;;;;;;1.65;0.30;;;6.80;99.90;;;;;;5082769;28;20064;-67
2020/12/27 10:18:10;;;;;;;0.40;0.40;;;6.80;99.90;;;;;;5072637;28;20042;-67
2020/12/27 10:20:36;;;;;;;1.33;0.45;;;6.80;99.90;;;;;;5084239;28;20024;-66
2020/12/27 10:23:01;;;;;;;0.82;0.40;;;6.80;99.90;;;;;;5058877;28;20131;-67
2020/12/27 10:25:26;;;;;;;0.40;0.40;;;6.80;99.90;;;;;;5062858;28;20076;-67
2020/12/27 10:27:52;;;;;;;0.40;0.40;;;6.80;99.90;;;;;;5065018;28;20028;-67
2020/12/27 10:30:17;;;;;;;0.47;0.40;;;6.80;99.90;;;;;;5071447;28;20467;-67
2020/12/27 10:32:43;;;;;;;0.43;0.38;;;6.80;99.90;;;;;;5056621;28;20029;-67
2020/12/27 10:35:08;;;;;;;0.30;0.22;;;6.80;99.90;;;;;;5060233;28;20068;-67
2020/12/27 10:37:34;;;;;;;0.40;0.40;;;6.80;99.90;;;;;;5079237;28;20067;-67
2020/12/27 10:39:59;;;;;;;0.47;0.40;;;6.80;99.90;;;;;;5060759;28;20082;-66
2020/12/27 10:42:25;;;;;;;0.55;0.30;;;6.80;99.90;;;;;;5070688;28;20444;-66
2020/12/27 10:44:51;;;;;;;0.30;0.30;;;6.80;99.90;;;;;;5063947;28;20520;-66
2020/12/27 10:47:16;;;;;;;0.45;0.30;;;6.90;99.90;;;;;;5074686;28;20057;-66
2020/12/27 10:49:42;;;;;;;0.60;0.35;;;6.90;99.90;;;;;;5066023;28;20070;-66
2020/12/27 10:52:07;;;;;;;0.43;0.43;;;6.90;99.90;;;;;;5077761;28;20052;-67
2020/12/27 10:54:33;;;;;;;0.30;0.30;;;6.90;99.90;;;;;;5078090;28;20071;-67
2020/12/27 10:56:58;;;;;;;0.73;0.20;;;6.90;99.90;;;;;;5063637;28;20057;-68
2020/12/27 10:59:24;;;;;;;0.30;0.30;;;7.00;99.90;;;;;;5072867;28;20169;-66
2020/12/27 11:01:49;;;;;;;0.20;0.20;;;6.90;99.90;;;;;;5073728;28;20517;-67
2020/12/27 11:04:15;;;;;;;0.40;0.40;;;7.00;99.90;;;;;;5058802;28;20108;-67
2020/12/27 11:06:42;;;;;;;0.65;0.40;;;7.00;99.90;;;;;;5064334;28;20051;-67
2020/12/27 11:09:07;;;;;;;0.40;0.30;;;7.00;99.90;;;;;;5060854;28;20032;-66
2020/12/27 11:11:37;;;;;;;0.65;0.63;;;7.00;99.90;;;;;;5064125;28;20031;-67
2020/12/27 11:14:05;;;;;;;2.22;0.45;;;7.00;99.90;;;;;;5059263;28;20036;-66
2020/12/27 11:16:33;;;;;;;0.28;0.28;;;7.10;99.90;;;;;;5060726;28;20096;-67
2020/12/27 11:19:02;;;;;;;0.40;0.40;;;7.10;99.90;;;;;;5061221;28;20036;-67
2020/12/27 11:21:28;;;;;;;1.55;0.32;;;7.10;99.90;;;;;;5059131;28;20151;-67
2020/12/27 11:23:54;;;;;;;0.40;0.40;;;7.10;99.90;;;;;;5059558;28;20115;-67
2020/12/27 11:26:19;;;;;;;0.80;0.40;;;7.10;99.90;;;;;;5054029;28;20040;-66
2020/12/27 11:28:46;;;;;;;1.55;0.40;;;7.10;99.90;;;;;;5064596;28;20035;-66
2020/12/27 11:31:15;;;;;;;1.10;0.60;;;7.20;99.90;;;;;;5078255;28;20027;-66
2020/12/27 11:33:40;;;;;;;0.70;0.40;;;7.20;99.90;;;;;;5067204;28;20457;-67
2020/12/27 11:36:06;;;;;;;2.05;0.32;;;7.10;99.90;;;;;;5068737;28;20032;-66
2020/12/27 11:38:32;;;;;;;0.75;0.65;;;7.10;99.90;;;;;;5067602;28;20028;-66
2020/12/27 11:40:57;;;;;;;0.30;0.20;;;7.20;99.90;;;;;;5076444;28;20024;-66
2020/12/27 11:43:23;;;;;;;0.82;0.30;;;7.10;99.90;;;;;;5071270;28;20021;-66
2020/12/27 11:45:48;;;;;;;0.75;0.43;;;7.10;99.90;;;;;;5080300;28;20021;-66
2020/12/27 11:48:14;;;;;;;1.80;0.40;;;7.10;99.90;;;;;;5074440;28;20033;-66
2020/12/27 11:50:39;;;;;;;0.75;0.50;;;7.20;99.90;;;;;;5075158;28;20093;-66
2020/12/27 11:53:05;;;;;;;0.80;0.40;;;7.10;99.90;;;;;;5087030;28;20489;-66
2020/12/27 11:55:30;;;;;;;0.20;0.20;;;7.10;99.90;;;;;;5067145;28;20041;-66
2020/12/27 11:57:56;;;;;;;0.98;0.47;;;7.20;99.90;;;;;;5067592;28;20017;-66
2020/12/27 12:00:21;;;;;;;0.50;0.50;;;7.10;99.90;;;;;;5061026;28;20028;-66
2020/12/27 12:02:47;;;;;;;1.48;0.47;;;7.10;99.90;;;;;;5067527;28;20067;-66
2020/12/27 12:05:13;;;;;;;0.50;0.38;;;7.10;99.90;;;;;;5082747;28;20040;-66
2020/12/27 12:07:39;;;;;;;1.38;0.40;;;7.10;99.90;;;;;;5057943;28;20036;-67
2020/12/27 12:10:04;;;;;;;2.50;1.42;;;7.10;99.90;;;;;;5059369;28;20457;-67
2020/12/27 12:12:30;;;;;;;4.57;1.13;;;7.10;99.90;;;;;;5063772;28;20353;-67
2020/12/27 12:14:55;;;;;;;0.40;0.40;;;7.10;99.90;;;;;;5078485;28;20056;-67
2020/12/27 12:17:21;;;;;;;0.43;0.35;;;7.10;99.90;;;;;;5080558;28;20380;-67
2020/12/27 12:19:47;;;;;;;0.47;0.43;;;7.10;99.90;;;;;;5090757;28;20107;-67
2020/12/27 12:22:13;;;;;;;0.40;0.40;;;7.00;99.90;;;;;;5094093;28;20025;-67
2020/12/27 12:24:38;;;;;;;1.05;0.60;;;7.00;99.90;;;;;;5093860;28;20032;-67
2020/12/27 12:27:04;;;;;;;0.40;0.40;;;7.00;99.90;;;;;;5093715;28;20032;-68
2020/12/27 12:29:29;;;;;;;2.45;0.60;;;7.00;99.90;;;;;;5093971;28;20024;-66
2020/12/27 12:31:55;;;;;;;1.67;0.70;;;6.90;99.90;;;;;;5094136;28;20024;-68
2020/12/27 12:34:20;;;;;;;1.20;0.82;;;6.90;99.90;;;;;;5093135;28;20032;-67
2020/12/27 12:36:49;;;;;;;1.17;0.85;;;6.80;99.90;;;;;;5093825;28;20023;-67
2020/12/27 12:39:15;;;;;;;2.17;1.65;;;6.80;99.90;;;;;;5093543;28;20109;-68
2020/12/27 12:41:40;;;;;;;1.67;1.25;;;6.80;99.90;;;;;;5093205;28;20111;-68
2020/12/27 12:44:06;;;;;;;2.08;1.20;;;6.80;99.90;;;;;;5093642;28;20040;-67
2020/12/27 12:46:31;;;;;;;1.00;0.70;;;6.70;99.90;;;;;;5093532;28;20879;-68
2020/12/27 12:48:57;;;;;;;0.98;0.68;;;6.70;99.90;;;;;;5092886;28;20055;-67
2020/12/27 12:51:23;;;;;;;1.23;0.63;;;6.70;99.90;;;;;;5093483;28;20136;-68
2020/12/27 12:53:49;;;;;;;0.50;0.50;;;6.60;99.90;;;;;;5093714;28;20044;-67
2020/12/27 12:56:15;;;;;;;2.00;0.60;;;6.60;99.90;;;;;;5092342;28;20122;-67
2020/12/27 12:58:41;;;;;;;0.75;0.47;;;6.60;99.90;;;;;;5093882;28;20028;-68